sensor_id;sensor_type;location;lat;lon;timestamp;P1;durP1;ratioP1;P2;durP2;ratioP2
35715;SDS011;21840;44.920;8.616;2022-08-21T00:00:28;8.68;;;3.10;;
35715;SDS011;21840;44.920;8.616;2022-08-21T00:02:57;5.65;;;2.72;;
35715;SDS011;21840;44.920;8.616;2022-08-21T00:05:29;8.63;;;3.20;;
35715;SDS011;21840;44.920;8.616;2022-08-21T00:07:55;9.93;;;2.50;;
35715;SDS011;21840;44.920;8.616;2022-08-21T00:10:21;3.97;;;2.70;;
35715;SDS011;21840;44.920;8.616;2022-08-21T00:12:48;6.07;;;2.55;;
35715;SDS011;21840;44.920;8.616;2022-08-21T00:15:16;6.82;;;2.72;;
35715;SDS011;21840;44.920;8.616;2022-08-21T00:17:44;5.95;;;2.75;;
35715;SDS011;21840;44.920;8.616;2022-08-21T00:20:10;8.48;;;3.45;;
35715;SDS011;21840;44.920;8.616;2022-08-21T00:22:39;4.78;;;3.03;;
35715;SDS011;21840;44.920;8.616;2022-08-21T00:25:06;7.00;;;3.20;;
35715;SDS011;21840;44.920;8.616;2022-08-21T00:27:32;5.07;;;2.85;;
35715;SDS011;21840;44.920;8.616;2022-08-21T00:29:58;7.85;;;3.60;;
35715;SDS011;21840;44.920;8.616;2022-08-21T00:32:24;10.88;;;3.50;;
35715;SDS011;21840;44.920;8.616;2022-08-21T00:34:51;11.90;;;3.30;;
35715;SDS011;21840;44.920;8.616;2022-08-21T00:37:17;16.77;;;4.07;;
35715;SDS011;21840;44.920;8.616;2022-08-21T00:39:46;6.82;;;3.40;;
35715;SDS011;21840;44.920;8.616;2022-08-21T00:42:12;11.50;;;3.72;;
35715;SDS011;21840;44.920;8.616;2022-08-21T00:44:42;7.20;;;3.38;;
35715;SDS011;21840;44.920;8.616;2022-08-21T00:47:10;5.47;;;3.08;;
35715;SDS011;21840;44.920;8.616;2022-08-21T00:49:36;5.97;;;2.97;;
35715;SDS011;21840;44.920;8.616;2022-08-21T00:52:03;7.72;;;3.03;;
35715;SDS011;21840;44.920;8.616;2022-08-21T00:54:31;4.15;;;2.78;;
35715;SDS011;21840;44.920;8.616;2022-08-21T00:56:59;4.70;;;2.97;;
35715;SDS011;21840;44.920;8.616;2022-08-21T00:59:27;6.78;;;2.80;;
35715;SDS011;21840;44.920;8.616;2022-08-21T01:01:56;8.70;;;2.90;;
35715;SDS011;21840;44.920;8.616;2022-08-21T01:04:22;11.05;;;3.10;;
35715;SDS011;21840;44.920;8.616;2022-08-21T01:06:48;6.95;;;3.03;;
35715;SDS011;21840;44.920;8.616;2022-08-21T01:09:13;5.30;;;3.38;;
35715;SDS011;21840;44.920;8.616;2022-08-21T01:11:39;8.10;;;2.90;;
35715;SDS011;21840;44.920;8.616;2022-08-21T01:14:08;5.72;;;3.13;;
35715;SDS011;21840;44.920;8.616;2022-08-21T01:16:37;5.40;;;2.92;;
35715;SDS011;21840;44.920;8.616;2022-08-21T01:19:05;6.70;;;2.92;;
35715;SDS011;21840;44.920;8.616;2022-08-21T01:21:32;7.03;;;3.13;;
35715;SDS011;21840;44.920;8.616;2022-08-21T01:23:58;7.55;;;3.28;;
35715;SDS011;21840;44.920;8.616;2022-08-21T01:26:25;4.93;;;2.90;;
35715;SDS011;21840;44.920;8.616;2022-08-21T01:31:30;6.05;;;3.40;;
35715;SDS011;21840;44.920;8.616;2022-08-21T01:33:58;7.53;;;3.50;;
35715;SDS011;21840;44.920;8.616;2022-08-21T01:36:24;6.10;;;3.33;;
35715;SDS011;21840;44.920;8.616;2022-08-21T01:38:50;4.85;;;3.00;;
35715;SDS011;21840;44.920;8.616;2022-08-21T01:41:15;4.70;;;3.13;;
35715;SDS011;21840;44.920;8.616;2022-08-21T01:43:43;6.28;;;3.20;;
35715;SDS011;21840;44.920;8.616;2022-08-21T01:46:09;6.32;;;3.38;;
35715;SDS011;21840;44.920;8.616;2022-08-21T01:48:36;5.72;;;3.22;;
35715;SDS011;21840;44.920;8.616;2022-08-21T01:51:02;5.32;;;3.00;;
35715;SDS011;21840;44.920;8.616;2022-08-21T01:53:28;5.88;;;2.90;;
35715;SDS011;21840;44.920;8.616;2022-08-21T01:55:54;12.90;;;3.53;;
35715;SDS011;21840;44.920;8.616;2022-08-21T01:58:19;5.35;;;2.95;;
35715;SDS011;21840;44.920;8.616;2022-08-21T02:00:45;6.60;;;3.65;;
35715;SDS011;21840;44.920;8.616;2022-08-21T02:03:11;8.50;;;3.97;;
35715;SDS011;21840;44.920;8.616;2022-08-21T02:05:36;7.25;;;3.83;;
35715;SDS011;21840;44.920;8.616;2022-08-21T02:08:02;5.47;;;3.88;;
35715;SDS011;21840;44.920;8.616;2022-08-21T02:10:29;5.05;;;3.35;;
35715;SDS011;21840;44.920;8.616;2022-08-21T02:12:57;5.57;;;3.70;;
35715;SDS011;21840;44.920;8.616;2022-08-21T02:15:24;5.53;;;3.13;;
35715;SDS011;21840;44.920;8.616;2022-08-21T02:17:54;9.98;;;4.18;;
35715;SDS011;21840;44.920;8.616;2022-08-21T02:20:23;5.55;;;3.35;;
35715;SDS011;21840;44.920;8.616;2022-08-21T02:22:54;6.53;;;3.70;;
35715;SDS011;21840;44.920;8.616;2022-08-21T02:25:22;6.35;;;3.50;;
35715;SDS011;21840;44.920;8.616;2022-08-21T02:27:50;10.73;;;3.72;;
35715;SDS011;21840;44.920;8.616;2022-08-21T02:30:37;5.65;;;3.60;;
35715;SDS011;21840;44.920;8.616;2022-08-21T02:33:03;6.68;;;3.67;;
35715;SDS011;21840;44.920;8.616;2022-08-21T02:35:33;7.97;;;3.55;;
35715;SDS011;21840;44.920;8.616;2022-08-21T02:38:00;9.55;;;3.65;;
35715;SDS011;21840;44.920;8.616;2022-08-21T02:40:29;4.28;;;3.00;;
35715;SDS011;21840;44.920;8.616;2022-08-21T02:42:56;4.53;;;3.42;;
35715;SDS011;21840;44.920;8.616;2022-08-21T02:45:23;5.38;;;3.38;;
35715;SDS011;21840;44.920;8.616;2022-08-21T02:47:49;8.27;;;3.20;;
35715;SDS011;21840;44.920;8.616;2022-08-21T02:50:20;4.45;;;3.15;;
35715;SDS011;21840;44.920;8.616;2022-08-21T02:52:48;5.82;;;3.53;;
35715;SDS011;21840;44.920;8.616;2022-08-21T02:55:14;5.88;;;3.45;;
35715;SDS011;21840;44.920;8.616;2022-08-21T02:57:41;5.70;;;3.60;;
35715;SDS011;21840;44.920;8.616;2022-08-21T03:00:06;9.05;;;3.50;;
35715;SDS011;21840;44.920;8.616;2022-08-21T03:02:34;5.28;;;3.25;;
35715;SDS011;21840;44.920;8.616;2022-08-21T03:05:00;7.75;;;4.20;;
35715;SDS011;21840;44.920;8.616;2022-08-21T03:07:26;5.60;;;3.20;;
35715;SDS011;21840;44.920;8.616;2022-08-21T03:09:51;5.65;;;3.45;;
35715;SDS011;21840;44.920;8.616;2022-08-21T03:12:17;4.65;;;3.03;;
35715;SDS011;21840;44.920;8.616;2022-08-21T03:14:42;5.38;;;2.95;;
35715;SDS011;21840;44.920;8.616;2022-08-21T03:17:08;6.78;;;3.25;;
35715;SDS011;21840;44.920;8.616;2022-08-21T03:19:34;7.07;;;2.95;;
35715;SDS011;21840;44.920;8.616;2022-08-21T03:22:00;4.97;;;2.92;;
35715;SDS011;21840;44.920;8.616;2022-08-21T03:24:25;5.03;;;3.05;;
35715;SDS011;21840;44.920;8.616;2022-08-21T03:26:51;5.15;;;2.75;;
35715;SDS011;21840;44.920;8.616;2022-08-21T03:29:16;11.40;;;3.20;;
35715;SDS011;21840;44.920;8.616;2022-08-21T03:31:42;6.03;;;3.13;;
35715;SDS011;21840;44.920;8.616;2022-08-21T03:34:08;6.45;;;2.63;;
35715;SDS011;21840;44.920;8.616;2022-08-21T03:36:34;4.13;;;2.88;;
35715;SDS011;21840;44.920;8.616;2022-08-21T03:38:59;4.35;;;2.90;;
35715;SDS011;21840;44.920;8.616;2022-08-21T03:41:25;5.20;;;2.40;;
35715;SDS011;21840;44.920;8.616;2022-08-21T03:43:50;4.88;;;2.70;;
35715;SDS011;21840;44.920;8.616;2022-08-21T03:46:16;9.00;;;2.47;;
35715;SDS011;21840;44.920;8.616;2022-08-21T03:48:41;3.55;;;2.38;;
35715;SDS011;21840;44.920;8.616;2022-08-21T03:51:07;2.92;;;2.35;;
35715;SDS011;21840;44.920;8.616;2022-08-21T03:53:32;7.72;;;2.50;;
35715;SDS011;21840;44.920;8.616;2022-08-21T03:55:59;7.72;;;2.30;;
35715;SDS011;21840;44.920;8.616;2022-08-21T03:58:25;4.60;;;2.08;;
35715;SDS011;21840;44.920;8.616;2022-08-21T04:00:53;6.50;;;2.38;;
35715;SDS011;21840;44.920;8.616;2022-08-21T04:03:21;4.10;;;2.03;;
35715;SDS011;21840;44.920;8.616;2022-08-21T04:05:47;5.72;;;2.38;;
35715;SDS011;21840;44.920;8.616;2022-08-21T04:08:13;5.10;;;2.53;;
35715;SDS011;21840;44.920;8.616;2022-08-21T04:10:40;5.88;;;2.58;;
35715;SDS011;21840;44.920;8.616;2022-08-21T04:13:07;4.55;;;2.53;;
35715;SDS011;21840;44.920;8.616;2022-08-21T04:15:33;3.47;;;2.38;;
35715;SDS011;21840;44.920;8.616;2022-08-21T04:17:59;3.80;;;2.50;;
35715;SDS011;21840;44.920;8.616;2022-08-21T04:20:25;5.80;;;2.55;;
35715;SDS011;21840;44.920;8.616;2022-08-21T04:22:51;5.72;;;2.63;;
35715;SDS011;21840;44.920;8.616;2022-08-21T04:25:18;4.22;;;2.50;;
35715;SDS011;21840;44.920;8.616;2022-08-21T04:27:46;4.30;;;2.72;;
35715;SDS011;21840;44.920;8.616;2022-08-21T04:30:12;3.75;;;2.22;;
35715;SDS011;21840;44.920;8.616;2022-08-21T04:32:41;2.97;;;2.22;;
35715;SDS011;21840;44.920;8.616;2022-08-21T04:35:09;14.65;;;2.65;;
35715;SDS011;21840;44.920;8.616;2022-08-21T04:37:36;4.63;;;2.42;;
35715;SDS011;21840;44.920;8.616;2022-08-21T04:40:02;3.28;;;2.30;;
35715;SDS011;21840;44.920;8.616;2022-08-21T04:42:29;8.88;;;2.55;;
35715;SDS011;21840;44.920;8.616;2022-08-21T04:44:55;6.55;;;2.40;;
35715;SDS011;21840;44.920;8.616;2022-08-21T04:47:22;7.53;;;2.50;;
35715;SDS011;21840;44.920;8.616;2022-08-21T04:49:49;8.40;;;2.28;;
35715;SDS011;21840;44.920;8.616;2022-08-21T04:52:16;6.68;;;2.42;;
35715;SDS011;21840;44.920;8.616;2022-08-21T04:54:46;4.90;;;2.37;;
35715;SDS011;21840;44.920;8.616;2022-08-21T04:57:14;5.45;;;2.10;;
35715;SDS011;21840;44.920;8.616;2022-08-21T04:59:46;7.57;;;2.45;;
35715;SDS011;21840;44.920;8.616;2022-08-21T05:02:14;6.30;;;2.13;;
35715;SDS011;21840;44.920;8.616;2022-08-21T05:04:45;5.50;;;2.65;;
35715;SDS011;21840;44.920;8.616;2022-08-21T05:07:20;4.53;;;2.75;;
35715;SDS011;21840;44.920;8.616;2022-08-21T05:09:50;4.85;;;2.65;;
35715;SDS011;21840;44.920;8.616;2022-08-21T05:12:15;5.22;;;2.25;;
35715;SDS011;21840;44.920;8.616;2022-08-21T05:14:41;3.67;;;2.40;;
35715;SDS011;21840;44.920;8.616;2022-08-21T05:17:08;3.80;;;2.78;;
35715;SDS011;21840;44.920;8.616;2022-08-21T05:19:34;6.30;;;2.25;;
35715;SDS011;21840;44.920;8.616;2022-08-21T05:22:00;3.78;;;2.20;;
35715;SDS011;21840;44.920;8.616;2022-08-21T05:24:26;5.18;;;2.47;;
35715;SDS011;21840;44.920;8.616;2022-08-21T05:26:53;3.67;;;2.67;;
35715;SDS011;21840;44.920;8.616;2022-08-21T05:29:18;5.88;;;2.33;;
35715;SDS011;21840;44.920;8.616;2022-08-21T05:31:45;6.00;;;2.83;;
35715;SDS011;21840;44.920;8.616;2022-08-21T05:34:12;6.90;;;2.60;;
35715;SDS011;21840;44.920;8.616;2022-08-21T05:36:40;4.78;;;2.70;;
35715;SDS011;21840;44.920;8.616;2022-08-21T05:39:05;7.07;;;2.80;;
35715;SDS011;21840;44.920;8.616;2022-08-21T05:41:31;9.13;;;2.67;;
35715;SDS011;21840;44.920;8.616;2022-08-21T05:43:56;4.18;;;2.70;;
35715;SDS011;21840;44.920;8.616;2022-08-21T05:46:22;5.38;;;2.78;;
35715;SDS011;21840;44.920;8.616;2022-08-21T05:48:47;4.55;;;2.50;;
35715;SDS011;21840;44.920;8.616;2022-08-21T05:51:14;5.88;;;3.05;;
35715;SDS011;21840;44.920;8.616;2022-08-21T05:53:41;5.15;;;2.70;;
35715;SDS011;21840;44.920;8.616;2022-08-21T05:56:10;8.80;;;3.05;;
35715;SDS011;21840;44.920;8.616;2022-08-21T05:58:37;4.70;;;3.00;;
35715;SDS011;21840;44.920;8.616;2022-08-21T06:01:03;5.20;;;3.22;;
35715;SDS011;21840;44.920;8.616;2022-08-21T06:03:31;6.80;;;2.85;;
35715;SDS011;21840;44.920;8.616;2022-08-21T06:05:59;7.97;;;3.13;;
35715;SDS011;21840;44.920;8.616;2022-08-21T06:08:25;7.18;;;4.07;;
35715;SDS011;21840;44.920;8.616;2022-08-21T06:10:52;5.05;;;3.45;;
35715;SDS011;21840;44.920;8.616;2022-08-21T06:13:19;4.55;;;3.20;;
35715;SDS011;21840;44.920;8.616;2022-08-21T06:15:46;10.80;;;3.53;;
35715;SDS011;21840;44.920;8.616;2022-08-21T06:18:12;6.45;;;3.60;;
35715;SDS011;21840;44.920;8.616;2022-08-21T06:20:39;5.40;;;3.03;;
35715;SDS011;21840;44.920;8.616;2022-08-21T06:23:05;10.32;;;3.97;;
35715;SDS011;21840;44.920;8.616;2022-08-21T06:25:30;5.55;;;3.28;;
35715;SDS011;21840;44.920;8.616;2022-08-21T06:28:03;6.38;;;3.72;;
35715;SDS011;21840;44.920;8.616;2022-08-21T06:30:31;8.35;;;3.83;;
35715;SDS011;21840;44.920;8.616;2022-08-21T06:32:57;9.77;;;3.63;;
35715;SDS011;21840;44.920;8.616;2022-08-21T06:35:22;5.82;;;4.15;;
35715;SDS011;21840;44.920;8.616;2022-08-21T06:37:49;6.93;;;3.10;;
35715;SDS011;21840;44.920;8.616;2022-08-21T06:40:16;4.43;;;3.45;;
35715;SDS011;21840;44.920;8.616;2022-08-21T06:42:41;5.03;;;3.15;;
35715;SDS011;21840;44.920;8.616;2022-08-21T06:45:07;5.47;;;3.72;;
35715;SDS011;21840;44.920;8.616;2022-08-21T06:47:33;4.25;;;3.10;;
35715;SDS011;21840;44.920;8.616;2022-08-21T06:49:59;6.28;;;3.00;;
35715;SDS011;21840;44.920;8.616;2022-08-21T06:52:24;6.20;;;3.28;;
35715;SDS011;21840;44.920;8.616;2022-08-21T06:54:50;8.10;;;3.78;;
35715;SDS011;21840;44.920;8.616;2022-08-21T06:57:15;6.15;;;3.42;;
35715;SDS011;21840;44.920;8.616;2022-08-21T06:59:44;7.00;;;2.67;;
35715;SDS011;21840;44.920;8.616;2022-08-21T07:02:09;4.63;;;3.10;;
35715;SDS011;21840;44.920;8.616;2022-08-21T07:04:35;5.35;;;2.65;;
35715;SDS011;21840;44.920;8.616;2022-08-21T07:07:00;4.38;;;2.78;;
35715;SDS011;21840;44.920;8.616;2022-08-21T07:09:26;4.03;;;2.58;;
35715;SDS011;21840;44.920;8.616;2022-08-21T07:11:53;4.32;;;2.50;;
35715;SDS011;21840;44.920;8.616;2022-08-21T07:14:20;3.15;;;2.50;;
35715;SDS011;21840;44.920;8.616;2022-08-21T07:16:47;4.18;;;2.55;;
35715;SDS011;21840;44.920;8.616;2022-08-21T07:19:13;18.45;;;2.60;;
35715;SDS011;21840;44.920;8.616;2022-08-21T07:21:39;3.10;;;2.30;;
35715;SDS011;21840;44.920;8.616;2022-08-21T07:24:04;3.55;;;2.55;;
35715;SDS011;21840;44.920;8.616;2022-08-21T07:26:30;3.25;;;2.15;;
35715;SDS011;21840;44.920;8.616;2022-08-21T07:28:55;3.13;;;2.17;;
35715;SDS011;21840;44.920;8.616;2022-08-21T07:31:22;3.35;;;2.22;;
35715;SDS011;21840;44.920;8.616;2022-08-21T07:33:49;3.08;;;1.98;;
35715;SDS011;21840;44.920;8.616;2022-08-21T07:36:15;3.95;;;1.95;;
35715;SDS011;21840;44.920;8.616;2022-08-21T07:38:41;3.80;;;2.05;;
35715;SDS011;21840;44.920;8.616;2022-08-21T07:41:10;3.65;;;1.92;;
35715;SDS011;21840;44.920;8.616;2022-08-21T07:43:40;4.07;;;1.80;;
35715;SDS011;21840;44.920;8.616;2022-08-21T07:46:06;1.95;;;1.70;;
35715;SDS011;21840;44.920;8.616;2022-08-21T07:48:32;2.40;;;1.40;;
35715;SDS011;21840;44.920;8.616;2022-08-21T07:50:58;3.80;;;1.75;;
35715;SDS011;21840;44.920;8.616;2022-08-21T07:53:27;4.55;;;1.50;;
35715;SDS011;21840;44.920;8.616;2022-08-21T07:55:53;2.25;;;1.63;;
35715;SDS011;21840;44.920;8.616;2022-08-21T07:58:22;2.83;;;1.50;;
35715;SDS011;21840;44.920;8.616;2022-08-21T08:00:48;4.88;;;1.70;;
35715;SDS011;21840;44.920;8.616;2022-08-21T08:03:13;2.83;;;1.50;;
35715;SDS011;21840;44.920;8.616;2022-08-21T08:05:39;4.80;;;1.35;;
35715;SDS011;21840;44.920;8.616;2022-08-21T08:08:04;6.85;;;1.23;;
35715;SDS011;21840;44.920;8.616;2022-08-21T08:10:30;3.08;;;1.38;;
35715;SDS011;21840;44.920;8.616;2022-08-21T08:12:56;1.35;;;1.10;;
35715;SDS011;21840;44.920;8.616;2022-08-21T08:15:23;2.35;;;1.35;;
35715;SDS011;21840;44.920;8.616;2022-08-21T08:17:50;4.90;;;1.27;;
35715;SDS011;21840;44.920;8.616;2022-08-21T08:20:17;1.60;;;1.27;;
35715;SDS011;21840;44.920;8.616;2022-08-21T08:22:43;1.58;;;1.20;;
35715;SDS011;21840;44.920;8.616;2022-08-21T08:25:10;2.42;;;1.55;;
35715;SDS011;21840;44.920;8.616;2022-08-21T08:27:37;1.75;;;1.35;;
35715;SDS011;21840;44.920;8.616;2022-08-21T08:30:04;2.15;;;1.27;;
35715;SDS011;21840;44.920;8.616;2022-08-21T08:32:31;2.00;;;1.00;;
35715;SDS011;21840;44.920;8.616;2022-08-21T08:34:58;1.35;;;1.13;;
35715;SDS011;21840;44.920;8.616;2022-08-21T08:37:24;2.28;;;1.10;;
35715;SDS011;21840;44.920;8.616;2022-08-21T08:39:49;1.58;;;1.10;;
35715;SDS011;21840;44.920;8.616;2022-08-21T08:42:26;3.45;;;1.10;;
35715;SDS011;21840;44.920;8.616;2022-08-21T08:44:59;3.97;;;1.17;;
35715;SDS011;21840;44.920;8.616;2022-08-21T08:47:28;1.45;;;0.90;;
35715;SDS011;21840;44.920;8.616;2022-08-21T08:52:32;1.40;;;1.10;;
35715;SDS011;21840;44.920;8.616;2022-08-21T08:55:05;2.58;;;1.17;;
35715;SDS011;21840;44.920;8.616;2022-08-21T08:57:34;4.53;;;1.30;;
35715;SDS011;21840;44.920;8.616;2022-08-21T09:00:05;1.25;;;1.15;;
35715;SDS011;21840;44.920;8.616;2022-08-21T09:02:34;5.00;;;1.33;;
35715;SDS011;21840;44.920;8.616;2022-08-21T09:05:00;4.50;;;1.25;;
35715;SDS011;21840;44.920;8.616;2022-08-21T09:10:04;5.47;;;1.10;;
35715;SDS011;21840;44.920;8.616;2022-08-21T09:12:39;4.45;;;1.58;;
35715;SDS011;21840;44.920;8.616;2022-08-21T09:27:02;13.75;;;2.85;;
35715;SDS011;21840;44.920;8.616;2022-08-21T09:29:33;3.78;;;1.80;;
35715;SDS011;21840;44.920;8.616;2022-08-21T09:32:02;1.98;;;1.08;;
35715;SDS011;21840;44.920;8.616;2022-08-21T09:34:34;4.15;;;1.35;;
35715;SDS011;21840;44.920;8.616;2022-08-21T09:37:01;2.50;;;1.27;;
35715;SDS011;21840;44.920;8.616;2022-08-21T09:39:28;2.13;;;1.25;;
35715;SDS011;21840;44.920;8.616;2022-08-21T09:41:57;2.03;;;1.05;;
35715;SDS011;21840;44.920;8.616;2022-08-21T09:44:25;2.25;;;1.20;;
35715;SDS011;21840;44.920;8.616;2022-08-21T09:46:53;2.05;;;1.35;;
35715;SDS011;21840;44.920;8.616;2022-08-21T09:49:26;3.03;;;1.02;;
35715;SDS011;21840;44.920;8.616;2022-08-21T09:51:54;1.23;;;1.02;;
35715;SDS011;21840;44.920;8.616;2022-08-21T09:54:34;5.05;;;1.20;;
35715;SDS011;21840;44.920;8.616;2022-08-21T09:59:54;2.00;;;1.27;;
35715;SDS011;21840;44.920;8.616;2022-08-21T10:02:30;1.83;;;0.95;;
35715;SDS011;21840;44.920;8.616;2022-08-21T10:05:00;1.52;;;1.23;;
35715;SDS011;21840;44.920;8.616;2022-08-21T10:07:58;2.20;;;1.08;;
35715;SDS011;21840;44.920;8.616;2022-08-21T10:10:27;1.20;;;1.10;;
35715;SDS011;21840;44.920;8.616;2022-08-21T10:21:20;3.78;;;1.02;;
35715;SDS011;21840;44.920;8.616;2022-08-21T10:32:10;1.80;;;1.00;;
35715;SDS011;21840;44.920;8.616;2022-08-21T10:48:02;3.53;;;1.50;;
35715;SDS011;21840;44.920;8.616;2022-08-21T10:50:32;2.47;;;1.30;;
35715;SDS011;21840;44.920;8.616;2022-08-21T11:06:37;4.38;;;1.48;;
35715;SDS011;21840;44.920;8.616;2022-08-21T11:09:11;1.48;;;1.02;;
35715;SDS011;21840;44.920;8.616;2022-08-21T11:11:41;2.28;;;1.30;;
35715;SDS011;21840;44.920;8.616;2022-08-21T11:17:26;1.80;;;1.00;;
35715;SDS011;21840;44.920;8.616;2022-08-21T11:22:29;2.72;;;1.20;;
35715;SDS011;21840;44.920;8.616;2022-08-21T11:30:25;2.10;;;1.10;;
35715;SDS011;21840;44.920;8.616;2022-08-21T11:43:40;7.00;;;1.30;;
35715;SDS011;21840;44.920;8.616;2022-08-21T11:46:18;2.03;;;1.40;;
35715;SDS011;21840;44.920;8.616;2022-08-21T11:51:40;1.10;;;0.98;;
35715;SDS011;21840;44.920;8.616;2022-08-21T11:56:54;5.18;;;1.10;;
35715;SDS011;21840;44.920;8.616;2022-08-21T11:59:45;1.92;;;1.15;;
35715;SDS011;21840;44.920;8.616;2022-08-21T12:02:20;1.40;;;1.20;;
35715;SDS011;21840;44.920;8.616;2022-08-21T12:04:51;1.85;;;1.20;;
35715;SDS011;21840;44.920;8.616;2022-08-21T12:09:55;2.30;;;1.30;;
35715;SDS011;21840;44.920;8.616;2022-08-21T12:12:27;2.55;;;1.20;;
35715;SDS011;21840;44.920;8.616;2022-08-21T12:15:06;2.75;;;1.40;;
35715;SDS011;21840;44.920;8.616;2022-08-21T12:17:36;4.05;;;1.40;;
35715;SDS011;21840;44.920;8.616;2022-08-21T12:21:05;1.73;;;1.30;;
35715;SDS011;21840;44.920;8.616;2022-08-21T12:25:37;3.03;;;1.25;;
35715;SDS011;21840;44.920;8.616;2022-08-21T12:28:11;1.48;;;1.27;;
35715;SDS011;21840;44.920;8.616;2022-08-21T12:30:41;3.03;;;0.88;;
35715;SDS011;21840;44.920;8.616;2022-08-21T12:35:52;1.67;;;1.00;;
35715;SDS011;21840;44.920;8.616;2022-08-21T12:38:34;2.65;;;1.23;;
35715;SDS011;21840;44.920;8.616;2022-08-21T12:41:21;1.13;;;1.05;;
35715;SDS011;21840;44.920;8.616;2022-08-21T12:43:53;2.13;;;1.20;;
35715;SDS011;21840;44.920;8.616;2022-08-21T12:46:29;4.40;;;1.25;;
35715;SDS011;21840;44.920;8.616;2022-08-21T12:49:12;1.58;;;1.25;;
35715;SDS011;21840;44.920;8.616;2022-08-21T12:56:57;1.10;;;1.00;;
35715;SDS011;21840;44.920;8.616;2022-08-21T12:59:24;1.10;;;1.00;;
35715;SDS011;21840;44.920;8.616;2022-08-21T13:01:51;1.15;;;1.05;;
35715;SDS011;21840;44.920;8.616;2022-08-21T13:04:18;1.45;;;0.95;;
35715;SDS011;21840;44.920;8.616;2022-08-21T13:06:48;0.80;;;0.80;;
35715;SDS011;21840;44.920;8.616;2022-08-21T13:09:17;3.88;;;1.02;;
35715;SDS011;21840;44.920;8.616;2022-08-21T13:11:45;1.92;;;1.20;;
35715;SDS011;21840;44.920;8.616;2022-08-21T13:17:00;0.77;;;0.77;;
35715;SDS011;21840;44.920;8.616;2022-08-21T13:19:28;2.45;;;0.70;;
35715;SDS011;21840;44.920;8.616;2022-08-21T13:21:56;1.23;;;0.90;;
35715;SDS011;21840;44.920;8.616;2022-08-21T13:24:23;2.42;;;1.10;;
35715;SDS011;21840;44.920;8.616;2022-08-21T13:26:54;0.93;;;0.75;;
35715;SDS011;21840;44.920;8.616;2022-08-21T13:29:22;0.80;;;0.80;;
35715;SDS011;21840;44.920;8.616;2022-08-21T13:31:53;3.30;;;0.80;;
35715;SDS011;21840;44.920;8.616;2022-08-21T13:34:30;2.45;;;1.00;;
35715;SDS011;21840;44.920;8.616;2022-08-21T13:37:04;0.80;;;0.77;;
35715;SDS011;21840;44.920;8.616;2022-08-21T13:39:32;0.82;;;0.82;;
35715;SDS011;21840;44.920;8.616;2022-08-21T13:41:58;2.65;;;0.88;;
35715;SDS011;21840;44.920;8.616;2022-08-21T13:44:34;2.30;;;1.63;;
35715;SDS011;21840;44.920;8.616;2022-08-21T13:47:02;3.83;;;1.05;;
35715;SDS011;21840;44.920;8.616;2022-08-21T13:49:30;1.50;;;1.08;;
35715;SDS011;21840;44.920;8.616;2022-08-21T13:52:01;1.65;;;0.82;;
35715;SDS011;21840;44.920;8.616;2022-08-21T13:54:38;1.40;;;0.70;;
35715;SDS011;21840;44.920;8.616;2022-08-21T13:57:15;2.80;;;1.02;;
35715;SDS011;21840;44.920;8.616;2022-08-21T13:59:48;1.77;;;1.00;;
35715;SDS011;21840;44.920;8.616;2022-08-21T14:02:15;2.85;;;1.08;;
35715;SDS011;21840;44.920;8.616;2022-08-21T14:04:54;2.60;;;0.93;;
35715;SDS011;21840;44.920;8.616;2022-08-21T14:07:31;1.38;;;1.02;;
35715;SDS011;21840;44.920;8.616;2022-08-21T14:10:04;1.17;;;1.00;;
35715;SDS011;21840;44.920;8.616;2022-08-21T14:12:43;2.83;;;1.10;;
35715;SDS011;21840;44.920;8.616;2022-08-21T14:15:16;1.13;;;0.85;;
35715;SDS011;21840;44.920;8.616;2022-08-21T14:17:44;5.85;;;0.90;;
35715;SDS011;21840;44.920;8.616;2022-08-21T14:20:12;1.17;;;1.00;;
35715;SDS011;21840;44.920;8.616;2022-08-21T14:22:51;1.20;;;0.98;;
35715;SDS011;21840;44.920;8.616;2022-08-21T14:27:44;1.20;;;1.10;;
35715;SDS011;21840;44.920;8.616;2022-08-21T14:30:21;2.72;;;1.30;;
35715;SDS011;21840;44.920;8.616;2022-08-21T14:35:13;1.00;;;0.90;;
35715;SDS011;21840;44.920;8.616;2022-08-21T14:37:42;1.55;;;0.85;;
35715;SDS011;21840;44.920;8.616;2022-08-21T14:40:09;6.40;;;1.10;;
35715;SDS011;21840;44.920;8.616;2022-08-21T14:42:36;1.95;;;1.13;;
35715;SDS011;21840;44.920;8.616;2022-08-21T14:45:05;3.03;;;0.90;;
35715;SDS011;21840;44.920;8.616;2022-08-21T14:47:36;4.85;;;1.20;;
35715;SDS011;21840;44.920;8.616;2022-08-21T14:50:02;0.82;;;0.82;;
35715;SDS011;21840;44.920;8.616;2022-08-21T14:52:28;4.00;;;1.20;;
35715;SDS011;21840;44.920;8.616;2022-08-21T14:54:54;2.78;;;1.10;;
35715;SDS011;21840;44.920;8.616;2022-08-21T14:57:19;1.48;;;1.17;;
35715;SDS011;21840;44.920;8.616;2022-08-21T14:59:45;4.78;;;1.67;;
35715;SDS011;21840;44.920;8.616;2022-08-21T15:02:10;1.98;;;1.17;;
35715;SDS011;21840;44.920;8.616;2022-08-21T15:04:39;7.43;;;1.17;;
35715;SDS011;21840;44.920;8.616;2022-08-21T15:07:05;1.48;;;0.93;;
35715;SDS011;21840;44.920;8.616;2022-08-21T15:09:30;4.53;;;0.90;;
35715;SDS011;21840;44.920;8.616;2022-08-21T15:11:57;1.02;;;0.88;;
35715;SDS011;21840;44.920;8.616;2022-08-21T15:14:26;1.65;;;0.93;;
35715;SDS011;21840;44.920;8.616;2022-08-21T15:16:54;1.80;;;0.90;;
35715;SDS011;21840;44.920;8.616;2022-08-21T15:19:20;1.45;;;1.15;;
35715;SDS011;21840;44.920;8.616;2022-08-21T15:21:46;2.17;;;1.05;;
35715;SDS011;21840;44.920;8.616;2022-08-21T15:24:11;1.42;;;0.88;;
35715;SDS011;21840;44.920;8.616;2022-08-21T15:26:37;3.13;;;1.00;;
35715;SDS011;21840;44.920;8.616;2022-08-21T15:29:02;7.13;;;1.00;;
35715;SDS011;21840;44.920;8.616;2022-08-21T15:31:31;2.17;;;0.90;;
35715;SDS011;21840;44.920;8.616;2022-08-21T15:33:56;0.95;;;0.82;;
35715;SDS011;21840;44.920;8.616;2022-08-21T15:36:22;1.00;;;0.90;;
35715;SDS011;21840;44.920;8.616;2022-08-21T15:38:48;3.33;;;0.95;;
35715;SDS011;21840;44.920;8.616;2022-08-21T15:41:14;0.90;;;0.90;;
35715;SDS011;21840;44.920;8.616;2022-08-21T15:43:50;1.45;;;0.90;;
35715;SDS011;21840;44.920;8.616;2022-08-21T15:46:18;1.20;;;1.10;;
35715;SDS011;21840;44.920;8.616;2022-08-21T15:48:45;1.60;;;1.50;;
35715;SDS011;21840;44.920;8.616;2022-08-21T15:51:11;1.75;;;1.00;;
35715;SDS011;21840;44.920;8.616;2022-08-21T15:53:38;2.88;;;1.02;;
35715;SDS011;21840;44.920;8.616;2022-08-21T15:56:20;1.92;;;1.05;;
35715;SDS011;21840;44.920;8.616;2022-08-21T15:58:49;3.75;;;1.00;;
35715;SDS011;21840;44.920;8.616;2022-08-21T16:01:16;2.83;;;1.17;;
35715;SDS011;21840;44.920;8.616;2022-08-21T16:03:42;5.18;;;1.40;;
35715;SDS011;21840;44.920;8.616;2022-08-21T16:06:14;4.05;;;1.30;;
35715;SDS011;21840;44.920;8.616;2022-08-21T16:08:40;3.30;;;1.40;;
35715;SDS011;21840;44.920;8.616;2022-08-21T16:11:05;1.33;;;1.23;;
35715;SDS011;21840;44.920;8.616;2022-08-21T16:13:38;1.80;;;1.20;;
35715;SDS011;21840;44.920;8.616;2022-08-21T16:16:08;6.57;;;1.20;;
35715;SDS011;21840;44.920;8.616;2022-08-21T16:18:36;0.90;;;0.90;;
35715;SDS011;21840;44.920;8.616;2022-08-21T16:21:02;4.82;;;1.05;;
35715;SDS011;21840;44.920;8.616;2022-08-21T16:23:27;4.07;;;1.35;;
35715;SDS011;21840;44.920;8.616;2022-08-21T16:25:53;2.10;;;0.93;;
35715;SDS011;21840;44.920;8.616;2022-08-21T16:28:19;1.73;;;1.23;;
35715;SDS011;21840;44.920;8.616;2022-08-21T16:30:46;4.20;;;1.20;;
35715;SDS011;21840;44.920;8.616;2022-08-21T16:33:21;1.20;;;1.10;;
35715;SDS011;21840;44.920;8.616;2022-08-21T16:35:51;6.45;;;1.50;;
35715;SDS011;21840;44.920;8.616;2022-08-21T16:38:17;9.25;;;1.17;;
35715;SDS011;21840;44.920;8.616;2022-08-21T16:40:42;1.05;;;1.02;;
35715;SDS011;21840;44.920;8.616;2022-08-21T16:43:08;1.92;;;1.30;;
35715;SDS011;21840;44.920;8.616;2022-08-21T16:45:34;1.55;;;1.23;;
35715;SDS011;21840;44.920;8.616;2022-08-21T16:47:59;2.33;;;1.40;;